Weather reports worldwide

Advertisment
Utklippan, Sweden (2632): temperature & dewpoint: 06.12.2019 16:00:00 - 12.12.2019 16:00:00 (CET)Utklippan, Sweden (2632): wind speed & gusts: 06.12.2019 16:00:00 - 12.12.2019 16:00:00 (CET)Utklippan, Sweden (2632): wind direction: 06.12.2019 16:00:00 - 12.12.2019 16:00:00 (CET)
Date & Time tt [°C] td [°C] ff [km/h] ff [kn] fx [km/h] fx [kn] dd
12.12.2019 16:00:00 5,0 3,7 21 11 31 17 WSW
12.12.2019 15:00:00 4,6 3,9 18 10 29 16 SW
12.12.2019 14:00:00 4,5 2,2 19 10 28 15 SW
12.12.2019 13:00:00 4,0 3,4 12 6 28 15 SSW
12.12.2019 12:00:00 4,0 1,7 22 12 29 16 SSW
12.12.2019 11:00:00 4,1 1,6 19 10 29 15 S
12.12.2019 10:00:00 4,3 1,7 20 11 29 16 S
12.12.2019 09:00:00 4,2 1,6 19 10 31 17 S
12.12.2019 08:00:00 4,1 2,0 23 12 37 20 S
12.12.2019 07:00:00 4,6 2,6 30 16 41 22 S
12.12.2019 06:00:00 4,9 2,9 31 17 37 20 S
12.12.2019 05:00:00 5,0 2,9 23 12 34 18 S
12.12.2019 04:00:00 5,2 2,9 25 13 33 18 S
12.12.2019 03:00:00 4,9 3,1 26 14 34 18 S
12.12.2019 02:00:00 4,5 3,5 27 14 34 18 S
12.12.2019 01:00:00 4,3 3,3 26 14 36 19 S
12.12.2019 00:00:00 4,5 3,5 26 14 32 17 S
11.12.2019 23:00:00 4,5 3,5 25 14 32 17 S
11.12.2019 22:00:00 4,4 3,7 24 13 32 17 SSW
11.12.2019 21:00:00 4,6 3,9 23 12 32 17 SSW
11.12.2019 20:00:00 4,7 3,8 23 12 33 18 SSW
11.12.2019 19:00:00 4,8 4,2 22 12 34 18 SSW
11.12.2019 18:00:00 5,0 4,4 28 15 34 18 SSW
11.12.2019 17:00:00 5,1 4,4 25 14 36 19 SSW
11.12.2019 16:00:00 5,2 5,1 24 13 37 20 SSW
11.12.2019 15:00:00 5,3 5,3 27 14 41 22 SSW
11.12.2019 14:00:00 5,3 5,2 31 17 42 23 SSW
11.12.2019 13:00:00 5,4 5,4 32 17 47 26 SSW
11.12.2019 12:00:00 5,3 5,2 35 19 48 26 SSW
11.12.2019 11:00:00 5,5 4,8 35 19 50 27 SSW
11.12.2019 10:00:00 5,9 4,1 40 22 55 30 SW
11.12.2019 09:00:00 5,7 3,0 41 22 56 31 SW
11.12.2019 08:00:00 5,9 3,1 39 21 59 32 SSW
11.12.2019 07:00:00 6,1 2,4 49 26 61 33 SSW
11.12.2019 06:00:00 5,9 2,5 49 26 65 35 SSW
11.12.2019 05:00:00 6,1 1,6 50 27 68 37 S
11.12.2019 04:00:00 6,2 1,5 50 27 70 38 SSW
11.12.2019 03:00:00 6,1 2,4 48 26 68 37 SSW
11.12.2019 02:00:00 6,0 2,6 43 23 58 31 SSW
11.12.2019 01:00:00 6,0 3,0 43 23 53 29 SSW
11.12.2019 00:00:00 5,8 2,3 41 22 52 28 SSW
10.12.2019 23:00:00 5,8 2,1 35 19 49 26 SSW
10.12.2019 22:00:00 5,6 1,5 34 18 44 24 S
10.12.2019 21:00:00 5,3 0,7 31 17 40 21 SSW
10.12.2019 20:00:00 4,8 -1,2 24 13 32 17 S
10.12.2019 19:00:00 3,9 -2,3 16 9 22 12 SSW
10.12.2019 18:00:00 3,3 -2,2 14 8 19 10 SW
10.12.2019 17:00:00 2,1 -2,8 9 5 16 9 WSW
10.12.2019 16:00:00 2,6 -3,1 12 6 21 12 WNW
10.12.2019 15:00:00 2,6 -2,1 16 9 25 13 WNW
10.12.2019 14:00:00 2,6 -2,5 20 11 28 15 WNW
10.12.2019 13:00:00 2,3 -2,4 22 12 32 17 NW
10.12.2019 12:00:00 2,2 -2,5 28 15 40 21 NW
10.12.2019 11:00:00 2,1 -2,0 37 20 47 25 NW
10.12.2019 10:00:00 2,0 -2,1 39 21 48 26 NW
10.12.2019 09:00:00 1,7 -2,3 36 19 53 29 NW
10.12.2019 08:00:00 2,0 -2,7 41 22 59 32 NNW
10.12.2019 07:00:00 2,3 -2,0 41 22 64 34 NNW
10.12.2019 06:00:00 2,6 -1,2 42 23 65 35 NNW
10.12.2019 05:00:00 3,0 -0,1 49 26 74 40 NNW
10.12.2019 04:00:00 2,9 1,6 51 28 69 37 NNW
10.12.2019 03:00:00 3,6 1,3 49 27 66 36 NNW
10.12.2019 02:00:00 4,2 1,9 45 25 59 32 NW
10.12.2019 01:00:00 5,3 4,0 42 23 54 29 WNW
10.12.2019 00:00:00 5,9 2,9 39 21 57 31 W
09.12.2019 23:00:00 6,5 3,6 41 22 58 32 WSW
09.12.2019 22:00:00 6,7 3,1 45 24 57 31 WSW
09.12.2019 21:00:00 6,8 3,9 43 23 55 30 WSW
09.12.2019 20:00:00 6,8 4,8 38 21 54 29 WSW
09.12.2019 19:00:00 7,2 5,7 43 23 59 32 WSW
09.12.2019 18:00:00 7,5 6,0 44 24 63 34 SW
09.12.2019 17:00:00 7,7 5,2 49 26 63 34 SW
09.12.2019 16:00:00 7,6 5,2 46 25 69 38 WSW
09.12.2019 15:00:00 7,6 4,5 49 26 66 36 WSW
09.12.2019 14:00:00 7,4 5,4 51 27 67 36 SW
09.12.2019 13:00:00 7,3 5,8 44 24 63 34 SW
09.12.2019 12:00:00 7,2 4,8 46 25 61 33 SW
09.12.2019 11:00:00 7,5 4,5 49 27 64 35 WSW
09.12.2019 10:00:00 7,4 4,4 50 27 64 35 WSW
09.12.2019 09:00:00 7,2 4,8 45 24 61 33 WSW
09.12.2019 08:00:00 7,3 4,9 45 24 66 36 WSW
09.12.2019 07:00:00 7,3 4,8 44 24 66 36 WSW
09.12.2019 06:00:00 7,1 6,8 45 24 65 35 WSW
09.12.2019 05:00:00 7,5 5,1 46 25 67 36 WSW
09.12.2019 04:00:00 7,5 5,8 46 25 63 34 WSW
09.12.2019 03:00:00 7,7 5,2 46 25 67 36 WSW
09.12.2019 02:00:00 7,6 5,4 50 27 64 35 WSW
09.12.2019 01:00:00 7,4 5,2 44 24 61 33 WSW
09.12.2019 00:00:00 7,7 5,5 46 25 64 35 WSW
08.12.2019 23:00:00 7,8 4,4 46 25 69 38 WSW
08.12.2019 22:00:00 8,0 6,0 50 27 65 35 WSW
08.12.2019 21:00:00 7,9 6,8 35 19 61 33 WSW
08.12.2019 20:00:00 8,0 6,0 39 21 61 33 WSW
08.12.2019 19:00:00 8,4 8,0 50 27 68 37 SW
08.12.2019 18:00:00 8,4 8,4 51 28 71 38 SW
08.12.2019 17:00:00 8,3 8,3 56 30 74 40 SW
08.12.2019 16:00:00 8,0 8,0 58 31 79 43 SW
08.12.2019 15:00:00 7,9 7,9 59 32 81 44 SW
08.12.2019 14:00:00 7,7 7,7 60 32 80 43 SW
08.12.2019 13:00:00 7,5 7,5 55 30 74 40 SW
08.12.2019 12:00:00 7,4 7,4 54 29 74 40 SW
08.12.2019 11:00:00 7,5 6,9 55 30 74 40 SW
08.12.2019 10:00:00 7,3 7,3 48 26 64 35 SSW
08.12.2019 09:00:00 7,2 7,2 42 23 63 34 SW
08.12.2019 08:00:00 7,4 7,4 46 25 61 33 SW
08.12.2019 07:00:00 7,6 7,6 41 22 55 30 SW
08.12.2019 06:00:00 7,0 7,0 25 14 42 23 SSW
08.12.2019 05:00:00 7,3 5,9 32 17 41 22 SW
08.12.2019 04:00:00 6,8 4,8 31 17 39 21 SW
08.12.2019 03:00:00 6,3 4,3 29 16 44 24 WSW
08.12.2019 02:00:00 6,2 3,5 39 21 50 27 W
08.12.2019 01:00:00 6,2 3,4 39 21 49 26 W
08.12.2019 00:00:00 6,2 3,5 37 20 48 26 W
07.12.2019 23:00:00 6,3 3,3 41 22 55 30 W
07.12.2019 22:00:00 6,4 3,4 45 24 54 29 W
07.12.2019 21:00:00 6,6 3,4 45 25 56 30 W
07.12.2019 20:00:00 6,7 3,5 44 24 64 34 W
07.12.2019 19:00:00 6,7 3,3 50 27 65 35 W
07.12.2019 18:00:00 6,3 3,5 56 30 67 36 W
07.12.2019 17:00:00 6,2 3,7 52 28 74 40 WNW
07.12.2019 16:00:00 7,3 3,5 47 25 62 33 W
07.12.2019 15:00:00 7,5 3,2 48 26 63 34 W
07.12.2019 14:00:00 7,6 3,6 50 27 67 36 W
07.12.2019 13:00:00 7,7 4,3 50 27 68 37 W
07.12.2019 12:00:00 7,9 5,4 51 28 68 37 W
07.12.2019 11:00:00 8,4 8,4 34 19 49 26 WSW
07.12.2019 10:00:00 8,1 8,1 37 20 47 25 WSW
07.12.2019 09:00:00 8,0 8,0 35 19 47 25 SW
07.12.2019 08:00:00 7,9 7,9 37 20 48 26 WSW
07.12.2019 07:00:00 7,9 7,9 39 21 52 28 WSW
07.12.2019 06:00:00 7,8 7,8 39 21 51 28 SW
07.12.2019 05:00:00 7,7 7,7 39 21 54 29 SW
07.12.2019 04:00:00 7,4 7,4 41 22 56 30 SW
07.12.2019 03:00:00 7,2 7,2 42 23 60 33 SW
07.12.2019 02:00:00 7,2 7,2 41 22 56 30 SW
07.12.2019 01:00:00 7,1 7,1 43 23 57 31 SW
07.12.2019 00:00:00 7,0 7,0 42 23 58 32 SW
06.12.2019 23:00:00 6,8 6,7 41 22 54 29 SW
06.12.2019 22:00:00 6,8 6,8 41 22 53 29 SW
06.12.2019 21:00:00 7,0 7,0 38 20 52 28 SW
06.12.2019 20:00:00 7,1 7,1 39 21 56 30 SW
06.12.2019 19:00:00 7,3 7,3 42 23 56 31 SW
06.12.2019 18:00:00 7,5 7,5 44 24 56 31 SW
06.12.2019 17:00:00 7,7 7,7 42 23 60 32 SW
06.12.2019 16:00:00 7,8 7,8 49 26 67 36 WSW

tt = temperature
td = dewpoint
ff = wind speed
fx = gusts
dd = wind direction

Next stations